createdAt,value
2023-03-29T00:00:14.567Z,101022.94
2023-03-29T00:03:17.489Z,101011.41
2023-03-29T00:06:22.040Z,101016.50
2023-03-29T00:09:26.764Z,101008.06
2023-03-29T00:12:28.992Z,101019.25
2023-03-29T00:15:31.349Z,101017.06
2023-03-29T00:18:33.620Z,101020.34
2023-03-29T00:21:35.759Z,101020.84
2023-03-29T00:24:38.015Z,101020.84
2023-03-29T00:27:40.518Z,101023.22
2023-03-29T00:30:42.651Z,101021.13
2023-03-29T00:33:45.758Z,101022.72
2023-03-29T00:36:50.994Z,101021.19
2023-03-29T00:39:53.284Z,101023.31
2023-03-29T00:42:58.062Z,101028.34
2023-03-29T00:46:00.424Z,101020.09
2023-03-29T00:49:09.339Z,101015.47
2023-03-29T00:52:13.282Z,101006.00
2023-03-29T00:55:18.784Z,101016.13
2023-03-29T00:58:53.185Z,101016.19
2023-03-29T01:02:02.352Z,101017.75
2023-03-29T01:05:11.942Z,101001.53
2023-03-29T01:08:21.720Z,100997.84
2023-03-29T01:11:28.340Z,100997.78
2023-03-29T01:14:38.153Z,100992.03
2023-03-29T01:17:43.395Z,100984.88
2023-03-29T01:20:55.539Z,100992.56
2023-03-29T01:24:18.153Z,100987.81
2023-03-29T01:27:49.837Z,100988.56
2023-03-29T01:31:03.775Z,100985.59
2023-03-29T01:34:11.356Z,100970.81
2023-03-29T01:37:19.079Z,100965.66
2023-03-29T01:40:23.530Z,100963.84
2023-03-29T01:43:34.434Z,100981.31
2023-03-29T01:46:39.591Z,100988.25
2023-03-29T01:49:52.187Z,100977.94
2023-03-29T01:53:03.610Z,100982.63
2023-03-29T01:56:11.767Z,100985.28
2023-03-29T01:59:18.664Z,100983.09
2023-03-29T02:02:21.690Z,100983.22
2023-03-29T02:05:24.532Z,101003.41
2023-03-29T02:08:27.949Z,101006.94
2023-03-29T02:11:33.440Z,101007.72
2023-03-29T02:14:37.207Z,101003.63
2023-03-29T02:17:43.682Z,101011.63
2023-03-29T02:20:47.391Z,101007.84
2023-03-29T02:23:50.590Z,101005.16
2023-03-29T02:26:52.820Z,100999.72
2023-03-29T02:29:55.195Z,100987.72
2023-03-29T02:33:02.019Z,101005.78
2023-03-29T02:36:14.583Z,101009.34
2023-03-29T02:39:18.027Z,101011.59
2023-03-29T02:42:21.106Z,101008.06
2023-03-29T02:45:24.044Z,100996.78
2023-03-29T02:48:27.261Z,101005.16
2023-03-29T02:51:32.841Z,101002.72
2023-03-29T02:54:37.914Z,101008.31
2023-03-29T02:57:40.973Z,100998.81
2023-03-29T03:00:46.483Z,100997.06
2023-03-29T03:03:50.633Z,101013.19
2023-03-29T03:06:53.401Z,101002.22
2023-03-29T03:09:55.903Z,101018.88
2023-03-29T03:12:58.111Z,101025.28
2023-03-29T03:16:01.180Z,101006.41
2023-03-29T03:19:03.840Z,101027.94
2023-03-29T03:22:07.636Z,101028.13
2023-03-29T03:25:13.105Z,101029.09
2023-03-29T03:28:15.513Z,101013.38
2023-03-29T03:31:19.567Z,101020.94
2023-03-29T03:34:40.349Z,101023.66
2023-03-29T03:37:42.963Z,101020.16
2023-03-29T03:40:45.449Z,101025.63
2023-03-29T03:43:48.992Z,101028.97
2023-03-29T03:46:51.968Z,101029.53
2023-03-29T03:49:54.211Z,101022.38
2023-03-29T03:53:00.002Z,101027.59
2023-03-29T03:56:10.761Z,101029.22
2023-03-29T03:59:29.796Z,101029.63
2023-03-29T04:02:37.288Z,101029.34
2023-03-29T04:05:40.803Z,101030.22
2023-03-29T04:08:43.841Z,101026.31
2023-03-29T04:11:53.162Z,101028.16
2023-03-29T04:14:55.979Z,101028.97
2023-03-29T04:18:00.591Z,101031.88
2023-03-29T04:21:08.842Z,101032.09
2023-03-29T04:24:12.201Z,101022.19
2023-03-29T04:27:17.634Z,101022.94
2023-03-29T04:30:19.995Z,101029.84
2023-03-29T04:33:37.418Z,101026.69
2023-03-29T04:36:39.919Z,101026.75
2023-03-29T04:39:49.855Z,101020.03
2023-03-29T04:42:53.532Z,101017.38
2023-03-29T04:45:56.914Z,101019.34
2023-03-29T04:49:18.552Z,101030.94
2023-03-29T04:52:24.752Z,101026.94
2023-03-29T04:55:27.939Z,101031.88
2023-03-29T04:58:35.570Z,101028.50
2023-03-29T05:01:37.856Z,101040.84
2023-03-29T05:04:41.078Z,101052.56
2023-03-29T05:07:48.461Z,101047.38
2023-03-29T05:10:53.502Z,101040.34
2023-03-29T05:13:57.309Z,101040.09
2023-03-29T05:17:05.276Z,101043.34
2023-03-29T05:20:12.829Z,101038.84
2023-03-29T05:23:17.520Z,101049.19
2023-03-29T05:26:38.549Z,101042.38
2023-03-29T05:29:44.765Z,101034.34
2023-03-29T05:33:05.701Z,101047.94
2023-03-29T05:36:14.062Z,101051.88
2023-03-29T05:39:24.378Z,101040.59
2023-03-29T05:42:27.387Z,101049.84
2023-03-29T05:45:42.075Z,101043.53
2023-03-29T05:48:44.353Z,101061.41
2023-03-29T05:51:46.709Z,101061.81
2023-03-29T05:54:49.321Z,101071.09
2023-03-29T05:57:52.734Z,101065.41
2023-03-29T06:01:00.510Z,101056.31
2023-03-29T06:04:26.614Z,101060.94
2023-03-29T06:07:50.330Z,101074.88
2023-03-29T06:11:12.162Z,101077.97
2023-03-29T06:14:43.107Z,101067.75
2023-03-29T06:17:57.148Z,101073.16
2023-03-29T06:21:03.104Z,101073.66
2023-03-29T06:24:06.884Z,101072.66
2023-03-29T06:27:16.246Z,101078.28
2023-03-29T06:30:19.667Z,101082.19
2023-03-29T06:33:26.607Z,101084.72
2023-03-29T06:36:38.818Z,101076.69
2023-03-29T06:39:41.714Z,101087.78
2023-03-29T06:43:07.041Z,101091.47
2023-03-29T06:46:41.379Z,101086.78
2023-03-29T06:49:44.438Z,101085.97
2023-03-29T06:53:04.347Z,101095.38
2023-03-29T06:56:14.802Z,101091.06
2023-03-29T06:59:18.247Z,101091.75
2023-03-29T07:02:34.490Z,101096.06
2023-03-29T07:05:51.848Z,101090.97
2023-03-29T07:08:59.663Z,101099.59
2023-03-29T07:12:24.161Z,101096.72
2023-03-29T07:15:28.729Z,101105.97
2023-03-29T07:18:49.514Z,101103.31
2023-03-29T07:22:15.394Z,101104.34
2023-03-29T07:25:30.292Z,101107.44
2023-03-29T07:28:38.398Z,101107.41
2023-03-29T07:31:41.955Z,101120.94
2023-03-29T07:35:15.812Z,101122.97
2023-03-29T07:38:18.733Z,101127.47
2023-03-29T07:41:30.324Z,101124.34
2023-03-29T07:44:42.605Z,101112.44
2023-03-29T07:47:46.822Z,101126.91
2023-03-29T07:50:53.729Z,101131.16
2023-03-29T07:54:03.264Z,101128.31
2023-03-29T07:57:17.142Z,101123.06
2023-03-29T08:00:34.614Z,101118.19
2023-03-29T08:04:18.128Z,101128.09
2023-03-29T08:07:43.173Z,101118.44
2023-03-29T08:11:15.244Z,101128.13
2023-03-29T08:14:29.193Z,101119.69
2023-03-29T08:17:42.356Z,101114.38
2023-03-29T08:20:45.265Z,101118.50
2023-03-29T08:23:47.722Z,101118.28
2023-03-29T08:27:14.144Z,101112.94
2023-03-29T08:30:20.642Z,101108.63
2023-03-29T08:33:27.455Z,101109.25
2023-03-29T08:36:50.518Z,101093.00
2023-03-29T08:40:05.540Z,101100.22
2023-03-29T08:43:35.651Z,101106.56
2023-03-29T08:47:25.364Z,101106.56
2023-03-29T08:50:36.679Z,101106.19
2023-03-29T08:53:55.112Z,101101.81
2023-03-29T08:57:12.410Z,101092.34
2023-03-29T09:00:20.549Z,101088.16
2023-03-29T09:03:27.277Z,101088.94
2023-03-29T09:06:32.773Z,101073.94
2023-03-29T09:09:49.067Z,101072.50
2023-03-29T09:13:24.280Z,101081.13
2023-03-29T09:17:21.505Z,101065.06
2023-03-29T09:20:51.444Z,101058.50
2023-03-29T09:24:36.889Z,101048.16
2023-03-29T09:27:51.129Z,101053.91
2023-03-29T09:31:06.276Z,101060.94
2023-03-29T09:34:17.668Z,101050.00
2023-03-29T09:37:34.616Z,101050.63
2023-03-29T09:40:45.333Z,101050.28
2023-03-29T09:43:55.391Z,101049.63
2023-03-29T09:47:21.616Z,101038.53
2023-03-29T09:50:37.313Z,101034.84
2023-03-29T09:53:43.713Z,101034.38
2023-03-29T09:57:15.710Z,101027.97
2023-03-29T10:00:20.861Z,101039.13
2023-03-29T10:03:26.268Z,101027.78
2023-03-29T10:06:36.838Z,101016.78
2023-03-29T10:09:39.422Z,101020.78
2023-03-29T10:12:53.232Z,101020.38
2023-03-29T10:16:09.384Z,101015.63
2023-03-29T10:19:34.500Z,101019.00
2023-03-29T10:22:38.252Z,101019.88
2023-03-29T10:25:44.939Z,101008.50
2023-03-29T10:28:53.264Z,101004.53
2023-03-29T10:32:01.885Z,101001.03
2023-03-29T10:35:30.512Z,100985.19
2023-03-29T10:38:36.142Z,100969.28
2023-03-29T10:41:38.950Z,100983.84
2023-03-29T10:45:18.822Z,100988.34
2023-03-29T10:48:30.237Z,100987.66
2023-03-29T10:51:34.441Z,100979.28
2023-03-29T10:54:37.285Z,100984.28
2023-03-29T10:57:51.880Z,100983.16
2023-03-29T11:00:57.656Z,100981.53
2023-03-29T11:04:23.084Z,100972.97
2023-03-29T11:07:34.636Z,100964.88
2023-03-29T11:11:05.216Z,100975.66
2023-03-29T11:14:16.100Z,100960.66
2023-03-29T11:18:05.869Z,100966.00
2023-03-29T11:21:19.850Z,100954.72
2023-03-29T11:24:47.953Z,100955.06
2023-03-29T11:28:12.092Z,100946.75
2023-03-29T11:31:26.139Z,100940.03
2023-03-29T11:35:01.516Z,100934.78
2023-03-29T11:38:22.048Z,100938.69
2023-03-29T11:41:31.785Z,100911.59
2023-03-29T11:44:35.125Z,100924.06
2023-03-29T11:47:39.811Z,100923.06
2023-03-29T11:50:51.293Z,100917.94
2023-03-29T11:54:02.079Z,100913.81
2023-03-29T11:57:05.854Z,100916.03
2023-03-29T12:00:15.618Z,100905.75
2023-03-29T12:03:41.182Z,100914.63
2023-03-29T12:06:53.345Z,100888.31
2023-03-29T12:10:08.932Z,100896.97
2023-03-29T12:13:32.351Z,100891.97
2023-03-29T12:16:40.318Z,100882.38
2023-03-29T12:19:48.805Z,100880.09
2023-03-29T12:22:51.770Z,100864.44
2023-03-29T12:26:12.232Z,100873.38
2023-03-29T12:29:45.546Z,100886.34
2023-03-29T12:32:53.412Z,100865.63
2023-03-29T12:37:03.678Z,100855.97
2023-03-29T12:40:23.224Z,100852.91
2023-03-29T12:43:44.152Z,100852.50
2023-03-29T12:47:01.497Z,100847.78
2023-03-29T12:50:07.072Z,100854.56
2023-03-29T12:53:23.271Z,100854.31
2023-03-29T12:56:40.922Z,100849.44
2023-03-29T12:59:44.556Z,100857.78
2023-03-29T13:03:00.186Z,100856.91
2023-03-29T13:06:05.313Z,100843.84
2023-03-29T13:09:21.594Z,100855.28
2023-03-29T13:12:32.941Z,100855.78
2023-03-29T13:15:38.912Z,100842.47
2023-03-29T13:19:01.654Z,100846.13
2023-03-29T13:22:34.550Z,100847.41
2023-03-29T13:25:55.605Z,100836.19
2023-03-29T13:29:16.372Z,100844.66
2023-03-29T13:32:22.166Z,100840.09
2023-03-29T13:35:39.752Z,100836.34
2023-03-29T13:38:50.658Z,100825.09
2023-03-29T13:41:54.435Z,100818.22
2023-03-29T13:45:26.476Z,100816.00
2023-03-29T13:48:37.903Z,100819.28
2023-03-29T13:51:43.194Z,100813.81
2023-03-29T13:54:54.505Z,100820.50
2023-03-29T13:58:02.714Z,100805.97
2023-03-29T14:01:21.002Z,100810.28
2023-03-29T14:04:26.981Z,100804.69
2023-03-29T14:07:30.622Z,100794.03
2023-03-29T14:10:40.685Z,100800.16
2023-03-29T14:13:43.257Z,100792.56
2023-03-29T14:16:45.681Z,100796.88
2023-03-29T14:19:49.066Z,100783.91
2023-03-29T14:22:51.621Z,100793.03
2023-03-29T14:25:54.054Z,100789.47
2023-03-29T14:28:57.657Z,100784.06
2023-03-29T14:32:20.506Z,100783.66
2023-03-29T14:35:29.556Z,100786.56
2023-03-29T14:38:32.290Z,100780.94
2023-03-29T14:41:36.820Z,100785.03
2023-03-29T14:44:39.238Z,100781.63
2023-03-29T14:47:42.792Z,100766.91
2023-03-29T14:50:45.920Z,100773.84
2023-03-29T14:53:50.854Z,100769.84
2023-03-29T14:56:53.992Z,100763.13
2023-03-29T15:00:00.907Z,100759.19
2023-03-29T15:03:03.577Z,100772.88
2023-03-29T15:06:06.338Z,100769.09
2023-03-29T15:09:15.218Z,100769.91
2023-03-29T15:12:17.773Z,100775.53
2023-03-29T15:15:20.371Z,100758.16
2023-03-29T15:18:35.112Z,100771.28
2023-03-29T15:21:39.407Z,100750.97
2023-03-29T15:24:48.199Z,100757.28
2023-03-29T15:27:51.838Z,100769.53
2023-03-29T15:31:07.672Z,100754.59
2023-03-29T15:34:27.841Z,100755.19
2023-03-29T15:37:30.694Z,100758.56
2023-03-29T15:40:33.174Z,100758.47
2023-03-29T15:43:36.260Z,100747.94
2023-03-29T15:46:38.598Z,100743.88
2023-03-29T15:49:41.132Z,100755.31
2023-03-29T15:52:43.356Z,100736.97
2023-03-29T15:55:48.256Z,100739.66
2023-03-29T15:58:53.350Z,100737.69
2023-03-29T16:01:56.221Z,100738.03
2023-03-29T16:05:00.002Z,100739.31
2023-03-29T16:08:02.279Z,100726.94
2023-03-29T16:11:06.732Z,100722.03
2023-03-29T16:14:12.032Z,100734.41
2023-03-29T16:17:15.840Z,100734.53
2023-03-29T16:20:20.093Z,100734.19
2023-03-29T16:23:22.591Z,100732.56
2023-03-29T16:26:26.221Z,100720.66
2023-03-29T16:29:28.821Z,100717.97
2023-03-29T16:32:31.395Z,100712.25
2023-03-29T16:35:38.380Z,100724.38
2023-03-29T16:38:40.914Z,100715.88
2023-03-29T16:41:45.153Z,100720.75
2023-03-29T16:44:47.298Z,100717.50
2023-03-29T16:47:49.879Z,100708.06
2023-03-29T16:50:52.161Z,100724.84
2023-03-29T16:53:54.470Z,100729.53
2023-03-29T16:56:57.742Z,100722.16
2023-03-29T17:00:00.041Z,100720.66
2023-03-29T17:03:02.559Z,100717.16
2023-03-29T17:06:05.613Z,100712.38
2023-03-29T17:09:08.103Z,100721.34
2023-03-29T17:12:10.448Z,100722.84
2023-03-29T17:15:12.764Z,100708.03
2023-03-29T17:18:15.042Z,100705.34
2023-03-29T17:21:17.403Z,100706.38
2023-03-29T17:24:19.629Z,100713.97
2023-03-29T17:27:21.950Z,100708.47
2023-03-29T17:30:24.270Z,100717.56
2023-03-29T17:33:26.493Z,100731.56
2023-03-29T17:36:28.984Z,100728.06
2023-03-29T17:39:32.170Z,100735.88
2023-03-29T17:42:34.324Z,100736.78
2023-03-29T17:45:36.614Z,100726.50
2023-03-29T17:48:39.191Z,100732.88
2023-03-29T17:51:41.425Z,100747.34
2023-03-29T17:54:43.734Z,100738.56
2023-03-29T17:57:45.858Z,100737.84
2023-03-29T18:00:48.115Z,100746.72
2023-03-29T18:03:50.471Z,100754.41
2023-03-29T18:06:52.732Z,100736.41
2023-03-29T18:09:54.889Z,100756.13
2023-03-29T18:12:57.069Z,100749.00
2023-03-29T18:15:59.541Z,100741.41
2023-03-29T18:19:01.820Z,100749.81
2023-03-29T18:22:06.621Z,100750.69
2023-03-29T18:25:09.568Z,100749.16
2023-03-29T18:28:11.842Z,100767.72
2023-03-29T18:31:14.617Z,100752.97
2023-03-29T18:34:16.847Z,100770.09
2023-03-29T18:37:19.020Z,100770.69
2023-03-29T18:40:24.618Z,100758.63
2023-03-29T18:43:26.892Z,100768.09
2023-03-29T18:46:31.368Z,100767.84
2023-03-29T18:49:36.709Z,100777.53
2023-03-29T18:52:39.158Z,100760.50
2023-03-29T18:55:47.757Z,100769.34
2023-03-29T18:58:49.949Z,100754.25
2023-03-29T19:01:52.297Z,100767.59
2023-03-29T19:04:54.508Z,100765.44
2023-03-29T19:07:57.606Z,100772.66
2023-03-29T19:11:07.795Z,100774.88
2023-03-29T19:14:10.009Z,100763.41
2023-03-29T19:17:12.505Z,100767.34
2023-03-29T19:20:14.814Z,100772.78
2023-03-29T19:23:18.311Z,100775.56
2023-03-29T19:26:20.684Z,100779.63
2023-03-29T19:29:23.586Z,100761.84
2023-03-29T19:32:25.825Z,100766.97
2023-03-29T19:35:28.221Z,100769.19
2023-03-29T19:38:30.545Z,100777.47
2023-03-29T19:41:32.869Z,100766.16
2023-03-29T19:44:38.257Z,100780.31
2023-03-29T19:47:42.973Z,100782.53
2023-03-29T19:50:45.936Z,100776.44
2023-03-29T19:53:48.653Z,100783.00
2023-03-29T19:56:52.843Z,100768.22
2023-03-29T19:59:55.701Z,100765.78
2023-03-29T20:02:58.494Z,100764.16
2023-03-29T20:06:00.935Z,100766.75
2023-03-29T20:09:05.246Z,100761.25
2023-03-29T20:12:07.845Z,100767.84
2023-03-29T20:15:10.530Z,100774.19
2023-03-29T20:18:12.917Z,100754.06
2023-03-29T20:21:18.720Z,100771.81
2023-03-29T20:24:22.202Z,100771.59
2023-03-29T20:27:25.478Z,100754.31
2023-03-29T20:30:27.749Z,100742.13
2023-03-29T20:33:30.049Z,100752.13
2023-03-29T20:36:32.329Z,100749.88
2023-03-29T20:39:34.624Z,100741.81
2023-03-29T20:42:38.255Z,100754.09
2023-03-29T20:45:52.096Z,100753.06
2023-03-29T20:48:56.091Z,100749.09
2023-03-29T20:51:58.867Z,100742.56
2023-03-29T20:55:01.248Z,100742.00
2023-03-29T20:58:03.822Z,100745.09
2023-03-29T21:01:06.447Z,100738.56
2023-03-29T21:04:10.829Z,100750.47
2023-03-29T21:07:17.239Z,100746.16
2023-03-29T21:10:19.565Z,100747.53
2023-03-29T21:13:22.177Z,100731.34
2023-03-29T21:16:25.375Z,100732.53
2023-03-29T21:19:27.880Z,100722.47
2023-03-29T21:22:31.167Z,100736.25
2023-03-29T21:25:33.523Z,100735.28
2023-03-29T21:28:37.673Z,100741.59
2023-03-29T21:31:40.720Z,100743.25
2023-03-29T21:34:42.971Z,100724.78
2023-03-29T21:37:45.141Z,100735.88
2023-03-29T21:40:47.422Z,100724.50
2023-03-29T21:43:49.607Z,100718.03
2023-03-29T21:46:52.399Z,100732.97
2023-03-29T21:49:54.552Z,100733.56
2023-03-29T21:52:56.767Z,100718.38
2023-03-29T21:55:58.997Z,100713.41
2023-03-29T21:59:01.640Z,100717.59
2023-03-29T22:02:03.942Z,100722.47
2023-03-29T22:05:09.437Z,100711.78
2023-03-29T22:08:12.018Z,100711.16
2023-03-29T22:11:16.252Z,100728.59
2023-03-29T22:14:19.478Z,100717.81
2023-03-29T22:17:26.849Z,100741.81
2023-03-29T22:20:29.668Z,100715.13
2023-03-29T22:23:32.078Z,100719.66
2023-03-29T22:26:34.768Z,100721.53
2023-03-29T22:29:37.370Z,100732.69
2023-03-29T22:32:40.354Z,100728.97
2023-03-29T22:35:42.713Z,100727.88
2023-03-29T22:38:46.214Z,100727.78
2023-03-29T22:41:48.828Z,100730.97
2023-03-29T22:44:54.021Z,100741.47
2023-03-29T22:47:56.717Z,100737.97
2023-03-29T22:50:59.712Z,100738.59
2023-03-29T22:54:02.075Z,100745.59
2023-03-29T22:57:04.567Z,100748.69
2023-03-29T23:00:09.278Z,100736.34
2023-03-29T23:03:11.817Z,100737.56
2023-03-29T23:06:14.084Z,100743.13
2023-03-29T23:09:16.711Z,100728.13
2023-03-29T23:12:19.087Z,100730.56
2023-03-29T23:15:22.969Z,100731.09
2023-03-29T23:18:26.585Z,100729.91
2023-03-29T23:21:28.839Z,100736.88
2023-03-29T23:24:47.849Z,100734.44
2023-03-29T23:27:50.365Z,100738.66
2023-03-29T23:31:03.216Z,100742.03
2023-03-29T23:34:05.799Z,100745.97
2023-03-29T23:37:08.121Z,100742.47
2023-03-29T23:40:14.277Z,100739.34
2023-03-29T23:43:17.080Z,100737.94
2023-03-29T23:46:19.370Z,100735.25
2023-03-29T23:49:22.835Z,100741.44
2023-03-29T23:52:25.995Z,100732.63
2023-03-29T23:55:28.423Z,100748.63
2023-03-29T23:58:33.051Z,100741.25
